createdAt,value
2019-01-04T00:00:28.864Z,8.53
2019-01-04T00:04:47.346Z,9.77
2019-01-04T00:09:06.188Z,9.00
2019-01-04T00:13:24.693Z,8.50
2019-01-04T00:17:42.994Z,8.83
2019-01-04T00:22:01.157Z,8.63
2019-01-04T00:26:19.843Z,9.10
2019-01-04T00:30:38.102Z,9.67
2019-01-04T00:34:56.325Z,8.83
2019-01-04T00:39:14.510Z,9.00
2019-01-04T00:43:32.687Z,8.47
2019-01-04T00:47:51.547Z,9.37
2019-01-04T00:52:09.875Z,8.30
2019-01-04T00:57:29.559Z,9.13
2019-01-04T01:03:00.706Z,8.60
2019-01-04T01:08:20.948Z,11.90
2019-01-04T01:13:56.746Z,10.40
2019-01-04T01:19:14.498Z,9.70
2019-01-04T01:24:22.620Z,10.27
2019-01-04T01:29:39.708Z,10.13
2019-01-04T01:34:49.196Z,11.57
2019-01-04T01:40:08.220Z,10.80
2019-01-04T01:45:46.453Z,9.90
2019-01-04T01:50:58.427Z,10.30
2019-01-04T01:55:16.728Z,11.00
2019-01-04T01:59:35.325Z,10.13
2019-01-04T02:03:53.915Z,12.43
2019-01-04T02:08:12.153Z,10.30
2019-01-04T02:12:31.061Z,10.50
2019-01-04T02:16:49.610Z,10.90
2019-01-04T02:21:07.868Z,8.07
2019-01-04T02:25:26.839Z,8.70
2019-01-04T02:29:45.147Z,11.87
2019-01-04T02:34:04.405Z,11.50
2019-01-04T02:38:25.515Z,9.20
2019-01-04T02:42:43.949Z,12.30
2019-01-04T02:47:02.046Z,9.13
2019-01-04T02:51:20.463Z,10.27
2019-01-04T02:55:38.762Z,9.30
2019-01-04T02:59:56.897Z,10.70
2019-01-04T03:04:15.452Z,9.00
2019-01-04T03:08:44.993Z,8.73
2019-01-04T03:13:02.995Z,7.07
2019-01-04T03:17:21.243Z,9.10
2019-01-04T03:21:39.710Z,10.80
2019-01-04T03:25:57.876Z,9.23
2019-01-04T03:30:16.153Z,7.00
2019-01-04T03:34:34.255Z,9.70
2019-01-04T03:38:52.516Z,10.43
2019-01-04T03:43:10.674Z,7.63
2019-01-04T03:47:28.893Z,9.70
2019-01-04T03:51:47.700Z,6.80
2019-01-04T03:56:05.844Z,8.40
2019-01-04T04:00:24.465Z,10.40
2019-01-04T04:04:42.976Z,9.97
2019-01-04T04:09:01.155Z,8.90
2019-01-04T04:13:21.071Z,10.90
2019-01-04T04:17:39.236Z,9.30
2019-01-04T04:21:57.484Z,10.47
2019-01-04T04:26:15.991Z,10.50
2019-01-04T04:30:34.241Z,7.27
2019-01-04T04:34:52.702Z,10.47
2019-01-04T04:39:13.849Z,8.97
2019-01-04T04:43:32.133Z,11.20
2019-01-04T04:47:50.309Z,7.97
2019-01-04T04:52:08.560Z,10.77
2019-01-04T04:56:26.750Z,10.70
2019-01-04T05:00:44.875Z,8.60
2019-01-04T05:05:03.083Z,9.30
2019-01-04T05:09:21.391Z,10.40
2019-01-04T05:13:39.513Z,10.20
2019-01-04T05:17:57.693Z,9.87
2019-01-04T05:22:15.830Z,10.33
2019-01-04T05:26:34.014Z,11.83
2019-01-04T05:30:52.175Z,10.70
2019-01-04T05:35:10.381Z,10.07
2019-01-04T05:39:28.501Z,6.93
2019-01-04T05:43:46.573Z,10.00
2019-01-04T05:48:04.702Z,9.80
2019-01-04T05:52:24.141Z,9.33
2019-01-04T05:56:42.325Z,8.37
2019-01-04T06:01:00.521Z,9.10
2019-01-04T06:05:18.940Z,9.23
2019-01-04T06:09:37.582Z,6.30
2019-01-04T06:13:55.773Z,11.10
2019-01-04T06:18:13.953Z,9.50
2019-01-04T06:22:32.089Z,10.17
2019-01-04T06:26:50.513Z,10.50
2019-01-04T06:31:08.798Z,10.57
2019-01-04T06:35:27.421Z,9.90
2019-01-04T06:39:45.590Z,11.17
2019-01-04T06:44:04.116Z,9.07
2019-01-04T06:48:25.290Z,12.40
2019-01-04T06:52:43.551Z,11.23
2019-01-04T06:57:01.678Z,10.77
2019-01-04T07:01:20.378Z,8.77
2019-01-04T07:05:38.915Z,10.83
2019-01-04T07:09:57.480Z,11.80
2019-01-04T07:14:16.045Z,11.77
2019-01-04T07:18:34.289Z,10.07
2019-01-04T07:22:52.494Z,12.40
2019-01-04T07:27:10.661Z,10.80
2019-01-04T07:31:28.794Z,11.57
2019-01-04T07:35:46.957Z,9.07
2019-01-04T07:40:06.127Z,10.93
2019-01-04T07:44:24.213Z,9.57
2019-01-04T07:48:42.438Z,12.90
2019-01-04T07:53:01.648Z,10.80
2019-01-04T07:57:19.720Z,10.00
2019-01-04T08:01:38.468Z,10.57
2019-01-04T08:06:00.624Z,9.17
2019-01-04T08:10:18.981Z,10.50
2019-01-04T08:14:37.280Z,10.07
2019-01-04T08:18:55.805Z,9.70
2019-01-04T08:23:14.869Z,10.20
2019-01-04T08:27:33.211Z,9.40
2019-01-04T08:31:51.819Z,10.27
2019-01-04T08:36:10.268Z,8.53
2019-01-04T08:40:28.310Z,10.00
2019-01-04T08:44:46.453Z,6.57
2019-01-04T08:49:04.546Z,9.23
2019-01-04T08:53:56.137Z,8.97
2019-01-04T08:58:15.018Z,8.83
2019-01-04T09:02:33.639Z,7.90
2019-01-04T09:06:51.824Z,7.80
2019-01-04T09:11:10.027Z,6.40
2019-01-04T09:15:28.347Z,5.30
2019-01-04T09:19:46.636Z,7.97
2019-01-04T09:24:05.059Z,7.40
2019-01-04T09:28:23.259Z,4.47
2019-01-04T09:32:41.304Z,6.60
2019-01-04T09:36:59.890Z,6.80
2019-01-04T09:42:04.514Z,6.60
2019-01-04T09:46:22.817Z,7.07
2019-01-04T09:50:41.040Z,6.40
2019-01-04T09:54:59.441Z,6.30
2019-01-04T09:59:20.463Z,6.53
2019-01-04T10:03:43.514Z,5.77
2019-01-04T10:08:01.748Z,6.40
2019-01-04T10:12:21.454Z,5.27
2019-01-04T10:16:40.849Z,7.17
2019-01-04T10:21:01.019Z,5.20
2019-01-04T10:25:20.116Z,5.20
2019-01-04T10:29:39.797Z,5.30
2019-01-04T10:33:58.579Z,6.80
2019-01-04T10:38:16.845Z,5.93
2019-01-04T10:42:36.088Z,6.07
2019-01-04T10:46:56.521Z,7.70
2019-01-04T10:51:14.799Z,7.30
2019-01-04T10:55:33.009Z,6.83
2019-01-04T10:59:51.093Z,7.73
2019-01-04T11:04:09.331Z,8.73
2019-01-04T11:08:28.977Z,7.60
2019-01-04T11:12:47.132Z,6.40
2019-01-04T11:17:05.742Z,7.20
2019-01-04T11:21:25.030Z,8.70
2019-01-04T11:26:08.615Z,9.57
2019-01-04T11:30:44.962Z,8.20
2019-01-04T11:35:58.193Z,9.30
2019-01-04T11:40:56.866Z,9.53
2019-01-04T11:45:51.960Z,8.37
2019-01-04T11:51:31.341Z,7.40
2019-01-04T11:55:49.431Z,8.93
2019-01-04T12:00:10.231Z,7.70
2019-01-04T12:04:30.162Z,8.70
2019-01-04T12:08:48.461Z,8.60
2019-01-04T12:13:06.585Z,5.00
2019-01-04T12:17:26.095Z,7.73
2019-01-04T12:21:44.661Z,6.83
2019-01-04T12:26:02.925Z,7.70
2019-01-04T12:30:21.108Z,6.13
2019-01-04T12:34:41.094Z,8.30
2019-01-04T12:39:00.412Z,10.50
2019-01-04T12:43:21.797Z,9.03
2019-01-04T12:47:40.115Z,8.10
2019-01-04T12:51:58.721Z,8.67
2019-01-04T12:56:16.942Z,8.83
2019-01-04T13:00:36.879Z,9.97
2019-01-04T13:04:56.865Z,8.17
2019-01-04T13:09:15.226Z,8.13
2019-01-04T13:13:33.614Z,8.30
2019-01-04T13:17:51.834Z,7.03
2019-01-04T13:22:11.145Z,7.30
2019-01-04T13:26:29.347Z,7.70
2019-01-04T13:30:47.833Z,8.17
2019-01-04T13:35:06.713Z,7.87
2019-01-04T13:39:26.745Z,5.90
2019-01-04T13:43:46.447Z,5.90
2019-01-04T13:48:05.324Z,6.97
2019-01-04T13:52:23.899Z,7.10
2019-01-04T13:56:42.413Z,4.93
2019-01-04T14:01:01.720Z,5.67
2019-01-04T14:05:20.083Z,6.23
2019-01-04T14:09:38.425Z,5.93
2019-01-04T14:13:56.563Z,6.20
2019-01-04T14:18:14.953Z,4.80
2019-01-04T14:22:33.037Z,5.03
2019-01-04T14:26:51.505Z,6.10
2019-01-04T14:31:10.063Z,6.90
2019-01-04T14:35:28.182Z,4.80
2019-01-04T14:39:46.429Z,6.67
2019-01-04T14:44:04.926Z,6.10
2019-01-04T14:48:23.284Z,6.73
2019-01-04T14:52:43.281Z,6.10
2019-01-04T14:57:01.587Z,6.20
2019-01-04T15:01:19.728Z,6.37
2019-01-04T15:05:38.003Z,6.60
2019-01-04T15:09:56.077Z,6.53
2019-01-04T15:14:14.564Z,6.33
2019-01-04T15:18:33.328Z,6.90
2019-01-04T15:22:51.626Z,6.10
2019-01-04T15:27:09.605Z,6.83
2019-01-04T15:31:27.797Z,7.03
2019-01-04T15:35:46.750Z,6.47
2019-01-04T15:40:05.520Z,6.83
2019-01-04T15:44:23.684Z,5.80
2019-01-04T15:48:42.123Z,5.50
2019-01-04T15:53:02.199Z,5.07
2019-01-04T15:57:20.948Z,5.93
2019-01-04T16:01:40.519Z,5.73
2019-01-04T16:05:59.591Z,5.23
2019-01-04T16:10:18.364Z,5.97
2019-01-04T16:14:37.044Z,5.33
2019-01-04T16:18:55.514Z,6.10
2019-01-04T16:23:13.766Z,7.00
2019-01-04T16:27:33.684Z,5.70
2019-01-04T16:31:51.884Z,4.87
2019-01-04T16:36:10.153Z,5.40
2019-01-04T16:40:28.260Z,6.43
2019-01-04T16:44:46.462Z,4.97
2019-01-04T16:49:04.979Z,5.40
2019-01-04T16:53:23.647Z,7.17
2019-01-04T16:57:43.075Z,5.77
2019-01-04T17:02:01.247Z,6.13
2019-01-04T17:06:21.592Z,6.73
2019-01-04T17:10:41.702Z,6.50
2019-01-04T17:15:00.272Z,6.00
2019-01-04T17:19:19.141Z,5.73
2019-01-04T17:23:39.138Z,6.50
2019-01-04T17:27:57.381Z,6.30
2019-01-04T17:32:16.247Z,6.40
2019-01-04T17:36:34.441Z,5.60
2019-01-04T17:40:55.333Z,6.10
2019-01-04T17:45:13.614Z,6.50
2019-01-04T17:49:33.255Z,6.23
2019-01-04T17:53:51.914Z,7.80
2019-01-04T17:58:10.051Z,6.20
2019-01-04T18:02:29.219Z,6.60
2019-01-04T18:06:47.466Z,6.87
2019-01-04T18:11:05.944Z,7.20
2019-01-04T18:15:27.805Z,7.87
2019-01-04T18:19:46.896Z,7.50
2019-01-04T18:24:05.238Z,7.03
2019-01-04T18:28:24.336Z,5.37
2019-01-04T18:32:42.592Z,6.67
2019-01-04T18:37:01.137Z,6.40
2019-01-04T18:41:19.763Z,6.53
2019-01-04T18:45:40.107Z,6.40
2019-01-04T18:49:58.672Z,6.97
2019-01-04T18:54:17.118Z,7.23
2019-01-04T18:58:35.687Z,7.40
2019-01-04T19:02:53.956Z,6.40
2019-01-04T19:07:12.195Z,7.47
2019-01-04T19:11:30.509Z,8.03
2019-01-04T19:15:49.001Z,7.90
2019-01-04T19:20:07.844Z,5.87
2019-01-04T19:24:26.544Z,8.67
2019-01-04T19:28:44.886Z,7.40
2019-01-04T19:33:03.079Z,8.03
2019-01-04T19:37:21.104Z,7.47
2019-01-04T19:41:39.396Z,8.17
2019-01-04T19:45:57.734Z,9.47
2019-01-04T19:50:22.265Z,8.07
2019-01-04T19:54:40.378Z,8.70
2019-01-04T19:59:01.439Z,8.00
2019-01-04T20:03:20.355Z,7.83
2019-01-04T20:09:27.128Z,8.27
2019-01-04T20:15:06.309Z,8.60
2019-01-04T20:19:49.711Z,7.80
2019-01-04T20:24:26.102Z,9.97
2019-01-04T20:29:01.942Z,9.70
2019-01-04T20:33:37.907Z,8.97
2019-01-04T20:38:14.058Z,10.70
2019-01-04T20:43:06.900Z,11.90
2019-01-04T20:47:49.645Z,8.57
2019-01-04T20:52:17.224Z,10.30
2019-01-04T20:56:51.593Z,8.90
2019-01-04T21:01:33.616Z,10.03
2019-01-04T21:06:28.733Z,9.33
2019-01-04T21:11:14.699Z,8.67
2019-01-04T21:15:52.019Z,9.90
2019-01-04T21:20:27.396Z,9.43
2019-01-04T21:25:04.113Z,9.23
2019-01-04T21:29:39.869Z,11.10
2019-01-04T21:34:20.014Z,11.20
2019-01-04T21:39:09.877Z,8.93
2019-01-04T21:43:46.215Z,10.33
2019-01-04T21:48:26.010Z,8.70
2019-01-04T21:53:01.937Z,7.70
2019-01-04T21:57:37.601Z,8.47
2019-01-04T22:02:20.006Z,11.07
2019-01-04T22:07:00.167Z,8.97
2019-01-04T22:11:36.101Z,8.43
2019-01-04T22:16:13.875Z,7.30
2019-01-04T22:20:57.879Z,8.40
2019-01-04T22:25:38.276Z,7.97
2019-01-04T22:30:13.811Z,8.30
2019-01-04T22:34:49.972Z,8.10
2019-01-04T22:39:26.536Z,7.27
2019-01-04T22:44:17.546Z,9.40
2019-01-04T22:49:10.436Z,9.33
2019-01-04T22:53:46.343Z,9.13
2019-01-04T22:58:22.274Z,5.60
2019-01-04T23:02:57.889Z,8.00
2019-01-04T23:07:50.269Z,7.33
2019-01-04T23:12:26.274Z,8.50
2019-01-04T23:17:02.125Z,9.37
2019-01-04T23:22:47.598Z,9.13
2019-01-04T23:27:24.842Z,7.93
2019-01-04T23:32:12.080Z,9.23
2019-01-04T23:36:55.646Z,6.83
2019-01-04T23:41:48.187Z,8.10
2019-01-04T23:46:43.572Z,7.97
2019-01-04T23:51:23.583Z,6.93
2019-01-04T23:55:53.755Z,8.37
